Port Hedland Pardoo, Australia
Current Conditions -  °F | °C
As of 3:30 PM on Friday 19 Dec 2014 (Local Time) from YPPD Reporting Station
Clear Clear  
Wind Chill: 93°   Ceiling: Unl
Heat Index: 96°   Visibility: 6mi
Dew Point: 66°   Wind: 15mph
Humidity: 41%   Direction: 330°NNW
Pressure: 29.77"   Gusts: NA
Location:  20.1°S, 119.57°E
Report Text: YPPD 190730Z AUTO 33013KT 9999 // NCD 34/19 Q1008
Loading
Personal Weather Stations






























Interactive Weather Map New forecast layout! Learn more

10-Day Weather Forecast

Advertisements
Track Severe Weather on mobile